createdAt,value
2018-10-02T00:00:22.941Z,3.50
2018-10-02T00:02:51.410Z,3.15
2018-10-02T00:05:19.970Z,2.85
2018-10-02T00:07:48.505Z,2.55
2018-10-02T00:10:17.069Z,2.20
2018-10-02T00:12:50.982Z,2.95
2018-10-02T00:15:19.469Z,2.50
2018-10-02T00:17:48.147Z,2.85
2018-10-02T00:20:16.695Z,2.87
2018-10-02T00:22:45.227Z,2.80
2018-10-02T00:25:13.786Z,3.47
2018-10-02T00:27:42.577Z,2.98
2018-10-02T00:30:11.219Z,2.40
2018-10-02T00:32:39.704Z,2.75
2018-10-02T00:35:08.233Z,2.92
2018-10-02T00:37:36.800Z,3.50
2018-10-02T00:40:05.465Z,2.55
2018-10-02T00:42:34.014Z,3.00
2018-10-02T00:45:02.654Z,3.10
2018-10-02T00:47:31.433Z,3.60
2018-10-02T00:50:00.364Z,3.77
2018-10-02T00:52:29.116Z,3.20
2018-10-02T00:54:57.889Z,3.50
2018-10-02T00:57:26.374Z,3.00
2018-10-02T00:59:55.091Z,3.08
2018-10-02T01:02:23.672Z,2.95
2018-10-02T01:04:52.296Z,3.27
2018-10-02T01:07:21.141Z,3.30
2018-10-02T01:09:49.700Z,4.97
2018-10-02T01:12:18.144Z,3.50
2018-10-02T01:14:46.775Z,3.30
2018-10-02T01:17:15.336Z,3.33
2018-10-02T01:19:43.827Z,3.50
2018-10-02T01:22:12.313Z,3.65
2018-10-02T01:24:40.808Z,3.20
2018-10-02T01:27:09.272Z,4.12
2018-10-02T01:29:37.756Z,3.42
2018-10-02T01:32:06.340Z,4.45
2018-10-02T01:34:35.030Z,3.50
2018-10-02T01:37:03.613Z,3.72
2018-10-02T01:39:32.141Z,3.05
2018-10-02T01:42:01.130Z,4.40
2018-10-02T01:44:29.827Z,2.70
2018-10-02T01:46:58.559Z,2.90
2018-10-02T01:49:27.486Z,3.00
2018-10-02T01:51:56.146Z,3.65
2018-10-02T01:54:24.621Z,2.92
2018-10-02T01:56:53.258Z,3.55
2018-10-02T01:59:21.877Z,3.20
2018-10-02T02:01:50.418Z,2.77
2018-10-02T02:04:19.005Z,2.85
2018-10-02T02:06:47.528Z,2.95
2018-10-02T02:09:16.072Z,3.25
2018-10-02T02:11:44.569Z,3.65
2018-10-02T02:14:13.000Z,2.95
2018-10-02T02:16:41.508Z,3.17
2018-10-02T02:19:10.153Z,3.75
2018-10-02T02:21:38.739Z,2.92
2018-10-02T02:24:07.232Z,2.67
2018-10-02T02:26:35.707Z,3.40
2018-10-02T02:29:04.185Z,3.58
2018-10-02T02:31:32.941Z,2.95
2018-10-02T02:34:01.934Z,3.70
2018-10-02T02:36:30.537Z,2.95
2018-10-02T02:38:59.110Z,2.87
2018-10-02T02:41:27.772Z,3.62
2018-10-02T02:43:56.554Z,3.25
2018-10-02T02:46:25.060Z,3.27
2018-10-02T02:48:58.826Z,3.27
2018-10-02T02:51:35.743Z,3.80
2018-10-02T02:54:04.267Z,3.75
2018-10-02T02:56:32.873Z,3.40
2018-10-02T02:59:01.861Z,3.00
2018-10-02T03:01:30.791Z,3.08
2018-10-02T03:03:59.861Z,3.27
2018-10-02T03:06:28.577Z,2.60
2018-10-02T03:08:57.231Z,4.00
2018-10-02T03:11:26.216Z,2.90
2018-10-02T03:13:54.685Z,2.80
2018-10-02T03:16:23.195Z,2.80
2018-10-02T03:18:51.718Z,2.55
2018-10-02T03:21:20.277Z,2.70
2018-10-02T03:23:48.739Z,2.58
2018-10-02T03:26:17.392Z,2.65
2018-10-02T03:28:45.919Z,2.40
2018-10-02T03:31:14.518Z,2.17
2018-10-02T03:33:43.113Z,2.65
2018-10-02T03:36:11.758Z,2.37
2018-10-02T03:38:40.288Z,2.75
2018-10-02T03:41:08.838Z,2.70
2018-10-02T03:43:37.378Z,2.22
2018-10-02T03:46:05.932Z,2.65
2018-10-02T03:48:34.667Z,2.45
2018-10-02T03:51:03.437Z,2.15
2018-10-02T03:53:32.091Z,2.45
2018-10-02T03:56:00.793Z,2.80
2018-10-02T03:58:29.459Z,1.92
2018-10-02T04:00:58.296Z,2.02
2018-10-02T04:03:27.040Z,2.33
2018-10-02T04:05:55.959Z,1.82
2018-10-02T04:08:24.464Z,1.90
2018-10-02T04:10:52.973Z,2.40
2018-10-02T04:13:21.579Z,2.10
2018-10-02T04:15:50.133Z,2.35
2018-10-02T04:18:18.673Z,2.60
2018-10-02T04:20:47.233Z,2.33
2018-10-02T04:23:15.755Z,2.30
2018-10-02T04:25:44.246Z,2.35
2018-10-02T04:28:12.981Z,2.20
2018-10-02T04:30:41.544Z,2.55
2018-10-02T04:33:10.046Z,2.00
2018-10-02T04:35:38.599Z,2.40
2018-10-02T04:38:07.149Z,1.92
2018-10-02T04:40:35.667Z,2.45
2018-10-02T04:43:04.248Z,2.40
2018-10-02T04:45:32.817Z,2.30
2018-10-02T04:48:01.821Z,2.37
2018-10-02T04:50:30.512Z,1.77
2018-10-02T04:52:59.512Z,2.15
2018-10-02T04:55:28.209Z,2.50
2018-10-02T04:57:58.128Z,2.45
2018-10-02T05:00:26.799Z,1.98
2018-10-02T05:02:55.331Z,2.37
2018-10-02T05:05:23.828Z,2.85
2018-10-02T05:07:52.611Z,2.55
2018-10-02T05:10:21.206Z,2.37
2018-10-02T05:12:49.749Z,3.20
2018-10-02T05:15:18.359Z,2.70
2018-10-02T05:17:46.928Z,2.60
2018-10-02T05:20:15.478Z,2.10
2018-10-02T05:22:44.036Z,1.80
2018-10-02T05:25:12.756Z,2.60
2018-10-02T05:27:41.349Z,2.50
2018-10-02T05:30:18.568Z,1.77
2018-10-02T05:32:47.113Z,2.42
2018-10-02T05:35:15.981Z,1.72
2018-10-02T05:37:44.289Z,2.08
2018-10-02T05:40:12.753Z,2.22
2018-10-02T05:42:41.376Z,2.70
2018-10-02T05:45:09.927Z,3.60
2018-10-02T05:47:38.480Z,2.72
2018-10-02T05:50:07.135Z,2.52
2018-10-02T05:52:35.685Z,2.75
2018-10-02T05:55:04.661Z,3.02
2018-10-02T05:57:34.107Z,2.95
2018-10-02T06:00:03.315Z,2.60
2018-10-02T06:02:32.684Z,2.45
2018-10-02T06:05:01.369Z,2.90
2018-10-02T06:07:30.248Z,3.05
2018-10-02T06:09:59.283Z,2.50
2018-10-02T06:12:27.912Z,2.90
2018-10-02T06:14:56.528Z,4.20
2018-10-02T06:17:25.069Z,3.37
2018-10-02T06:19:53.958Z,2.63
2018-10-02T06:22:22.778Z,3.23
2018-10-02T06:24:51.415Z,2.95
2018-10-02T06:27:19.948Z,3.00
2018-10-02T06:29:48.538Z,3.20
2018-10-02T06:32:16.979Z,2.83
2018-10-02T06:34:45.418Z,3.50
2018-10-02T06:37:13.939Z,3.00
2018-10-02T06:39:42.467Z,3.10
2018-10-02T06:42:11.059Z,2.80
2018-10-02T06:44:39.634Z,2.65
2018-10-02T06:47:08.010Z,3.60
2018-10-02T06:49:36.448Z,3.67
2018-10-02T06:52:05.064Z,3.50
2018-10-02T06:54:33.441Z,2.63
2018-10-02T06:57:02.026Z,2.50
2018-10-02T06:59:30.526Z,4.40
2018-10-02T07:01:59.169Z,3.67
2018-10-02T07:04:28.097Z,2.83
2018-10-02T07:06:56.765Z,3.27
2018-10-02T07:09:25.719Z,2.83
2018-10-02T07:11:54.212Z,3.37
2018-10-02T07:14:23.177Z,3.37
2018-10-02T07:16:51.693Z,3.30
2018-10-02T07:19:20.362Z,2.50
2018-10-02T07:21:48.886Z,2.73
2018-10-02T07:24:17.449Z,3.20
2018-10-02T07:26:46.049Z,3.43
2018-10-02T07:29:14.514Z,3.20
2018-10-02T07:31:43.015Z,3.05
2018-10-02T07:34:11.632Z,2.77
2018-10-02T07:36:40.172Z,2.80
2018-10-02T07:39:09.159Z,2.73
2018-10-02T07:41:37.761Z,3.00
2018-10-02T07:44:06.567Z,2.90
2018-10-02T07:46:35.442Z,2.92
2018-10-02T07:49:04.076Z,2.95
2018-10-02T07:51:33.407Z,2.77
2018-10-02T07:54:02.049Z,3.15
2018-10-02T07:56:30.674Z,2.80
2018-10-02T07:58:59.287Z,2.77
2018-10-02T08:01:28.049Z,2.35
2018-10-02T08:03:56.753Z,2.87
2018-10-02T08:06:25.358Z,2.67
2018-10-02T08:08:53.841Z,2.60
2018-10-02T08:11:22.363Z,3.45
2018-10-02T08:13:50.878Z,3.08
2018-10-02T08:16:19.410Z,2.30
2018-10-02T08:18:47.959Z,2.73
2018-10-02T08:21:16.473Z,2.80
2018-10-02T08:23:44.965Z,2.47
2018-10-02T08:26:13.541Z,2.70
2018-10-02T08:28:42.098Z,3.40
2018-10-02T08:31:10.648Z,2.90
2018-10-02T08:33:39.162Z,2.83
2018-10-02T08:36:08.083Z,3.20
2018-10-02T08:38:36.567Z,2.63
2018-10-02T08:41:05.159Z,3.40
2018-10-02T08:43:33.731Z,3.00
2018-10-02T08:46:02.241Z,3.20
2018-10-02T08:48:30.960Z,3.00
2018-10-02T08:50:59.795Z,2.93
2018-10-02T08:53:28.836Z,2.63
2018-10-02T08:55:58.041Z,4.20
2018-10-02T08:58:27.462Z,3.20
2018-10-02T09:00:56.092Z,2.70
2018-10-02T09:03:24.821Z,2.80
2018-10-02T09:05:53.372Z,3.20
2018-10-02T09:08:21.877Z,3.30
2018-10-02T09:10:50.406Z,2.80
2018-10-02T09:13:19.366Z,2.97
2018-10-02T09:15:47.989Z,3.67
2018-10-02T09:18:16.365Z,2.57
2018-10-02T09:20:44.987Z,3.10
2018-10-02T09:23:13.454Z,3.07
2018-10-02T09:25:42.002Z,3.10
2018-10-02T09:28:10.577Z,3.57
2018-10-02T09:30:44.453Z,2.33
2018-10-02T09:33:18.180Z,2.50
2018-10-02T09:35:52.044Z,2.90
2018-10-02T09:38:25.753Z,2.77
2018-10-02T09:40:59.719Z,2.90
2018-10-02T09:43:40.198Z,2.20
2018-10-02T09:46:08.686Z,2.90
2018-10-02T09:48:37.266Z,2.80
2018-10-02T09:51:07.017Z,2.47
2018-10-02T09:53:35.458Z,2.70
2018-10-02T09:56:04.325Z,2.67
2018-10-02T09:58:32.887Z,3.50
2018-10-02T10:03:08.735Z,2.60
2018-10-02T10:05:37.177Z,2.00
2018-10-02T10:08:06.781Z,2.10
2018-10-02T10:10:35.296Z,2.13
2018-10-02T10:13:03.722Z,3.40
2018-10-02T10:15:32.273Z,3.10
2018-10-02T10:18:00.815Z,2.30
2018-10-02T10:20:30.022Z,3.13
2018-10-02T10:22:58.698Z,2.40
2018-10-02T10:25:27.484Z,2.03
2018-10-02T10:27:55.984Z,2.00
2018-10-02T10:30:26.414Z,2.40
2018-10-02T10:32:54.941Z,2.63
2018-10-02T10:35:23.538Z,2.23
2018-10-02T10:37:52.025Z,2.57
2018-10-02T10:40:20.534Z,2.53
2018-10-02T10:42:49.049Z,2.20
2018-10-02T10:45:17.570Z,3.43
2018-10-02T10:47:46.092Z,2.50
2018-10-02T10:50:14.582Z,2.33
2018-10-02T10:52:43.091Z,3.13
2018-10-02T10:55:31.812Z,2.53
2018-10-02T10:58:00.379Z,2.80
2018-10-02T11:00:29.072Z,2.23
2018-10-02T11:02:57.633Z,2.30
2018-10-02T11:05:26.087Z,2.80
2018-10-02T11:07:54.612Z,2.60
2018-10-02T11:10:23.118Z,3.10
2018-10-02T11:12:51.576Z,2.90
2018-10-02T11:15:21.135Z,2.87
2018-10-02T11:17:49.609Z,3.10
2018-10-02T11:20:26.381Z,2.90
2018-10-02T11:22:55.032Z,2.93
2018-10-02T11:25:23.516Z,3.37
2018-10-02T11:27:51.997Z,3.70
2018-10-02T11:30:20.559Z,2.70
2018-10-02T11:32:49.065Z,3.13
2018-10-02T11:35:17.602Z,2.90
2018-10-02T11:37:46.353Z,3.20
2018-10-02T11:40:15.150Z,3.10
2018-10-02T11:42:43.671Z,3.27
2018-10-02T11:45:12.145Z,4.07
2018-10-02T11:47:40.675Z,4.17
2018-10-02T11:50:09.170Z,4.10
2018-10-02T11:52:37.728Z,3.20
2018-10-02T11:55:06.304Z,4.90
2018-10-02T11:57:35.067Z,3.20
2018-10-02T12:00:03.852Z,3.43
2018-10-02T12:02:32.541Z,3.87
2018-10-02T12:05:01.141Z,3.43
2018-10-02T12:07:30.704Z,3.80
2018-10-02T12:10:00.243Z,3.45
2018-10-02T12:12:28.818Z,3.42
2018-10-02T12:14:57.406Z,3.67
2018-10-02T12:17:26.042Z,3.97
2018-10-02T12:19:54.706Z,4.35
2018-10-02T12:22:23.037Z,3.20
2018-10-02T12:24:51.529Z,3.62
2018-10-02T12:27:20.237Z,3.42
2018-10-02T12:29:48.748Z,3.80
2018-10-02T12:32:17.330Z,5.23
2018-10-02T12:34:45.774Z,3.00
2018-10-02T12:37:14.257Z,3.40
2018-10-02T12:39:42.710Z,3.47
2018-10-02T12:42:11.373Z,3.80
2018-10-02T12:44:39.995Z,3.10
2018-10-02T12:47:08.841Z,3.90
2018-10-02T12:49:37.290Z,3.62
2018-10-02T12:52:06.020Z,4.50
2018-10-02T12:54:35.155Z,3.90
2018-10-02T12:57:03.731Z,3.50
2018-10-02T12:59:33.644Z,3.75
2018-10-02T13:02:03.183Z,4.20
2018-10-02T13:04:31.958Z,3.97
2018-10-02T13:07:00.670Z,4.10
2018-10-02T13:09:29.240Z,5.57
2018-10-02T13:11:57.808Z,3.87
2018-10-02T13:14:26.913Z,3.10
2018-10-02T13:16:55.661Z,4.25
2018-10-02T13:19:24.140Z,2.87
2018-10-02T13:21:52.650Z,3.60
2018-10-02T13:24:21.197Z,3.30
2018-10-02T13:26:49.689Z,3.30
2018-10-02T13:29:18.169Z,3.20
2018-10-02T13:31:46.653Z,3.33
2018-10-02T13:34:15.694Z,3.20
2018-10-02T13:36:44.194Z,3.83
2018-10-02T13:39:12.805Z,3.47
2018-10-02T13:41:41.410Z,2.93
2018-10-02T13:44:09.898Z,3.00
2018-10-02T13:46:38.413Z,3.30
2018-10-02T13:49:07.037Z,4.80
2018-10-02T13:51:35.582Z,4.60
2018-10-02T13:54:04.081Z,3.37
2018-10-02T13:56:32.651Z,4.23
2018-10-02T13:59:01.321Z,3.73
2018-10-02T14:01:29.945Z,4.00
2018-10-02T14:03:58.542Z,3.55
2018-10-02T14:06:27.000Z,3.80
2018-10-02T14:08:55.561Z,3.00
2018-10-02T14:11:23.988Z,4.20
2018-10-02T14:13:52.452Z,3.63
2018-10-02T14:16:21.170Z,3.20
2018-10-02T14:18:49.716Z,3.30
2018-10-02T14:21:18.282Z,3.00
2018-10-02T14:23:46.776Z,3.43
2018-10-02T14:26:15.352Z,3.00
2018-10-02T14:28:44.750Z,2.70
2018-10-02T14:31:13.220Z,2.80
2018-10-02T14:33:41.770Z,3.23
2018-10-02T14:36:10.295Z,3.27
2018-10-02T14:38:39.148Z,3.27
2018-10-02T14:41:07.813Z,3.23
2018-10-02T14:43:36.357Z,2.37
2018-10-02T14:46:04.855Z,2.65
2018-10-02T14:48:33.485Z,2.30
2018-10-02T14:51:02.772Z,2.42
2018-10-02T14:53:31.842Z,2.00
2018-10-02T14:56:02.424Z,2.37
2018-10-02T14:58:31.839Z,2.17
2018-10-02T15:01:00.876Z,3.20
2018-10-02T15:03:29.597Z,2.47
2018-10-02T15:05:59.599Z,2.20
2018-10-02T15:08:29.145Z,2.10
2018-10-02T15:10:57.886Z,3.20
2018-10-02T15:13:26.401Z,2.30
2018-10-02T15:15:54.880Z,2.03
2018-10-02T15:18:23.428Z,2.70
2018-10-02T15:20:51.900Z,1.90
2018-10-02T15:23:20.479Z,2.10
2018-10-02T15:25:48.982Z,2.57
2018-10-02T15:28:17.460Z,1.80
2018-10-02T15:30:45.967Z,1.90
2018-10-02T15:33:14.541Z,2.10
2018-10-02T15:35:43.100Z,1.90
2018-10-02T15:38:11.695Z,1.77
2018-10-02T15:40:40.318Z,1.70
2018-10-02T15:43:08.920Z,1.67
2018-10-02T15:45:37.701Z,2.00
2018-10-02T15:48:06.213Z,2.00
2018-10-02T15:50:34.821Z,1.80
2018-10-02T15:53:03.322Z,2.27
2018-10-02T15:55:32.268Z,1.97
2018-10-02T15:58:00.854Z,2.00
2018-10-02T16:00:29.589Z,1.90
2018-10-02T16:02:58.233Z,1.40
2018-10-02T16:05:26.890Z,2.07
2018-10-02T16:07:55.699Z,3.20
2018-10-02T16:10:24.209Z,2.00
2018-10-02T16:12:52.719Z,1.70
2018-10-02T16:15:21.158Z,1.60
2018-10-02T16:17:49.649Z,1.37
2018-10-02T16:20:18.172Z,1.70
2018-10-02T16:22:46.661Z,1.40
2018-10-02T16:25:15.171Z,1.23
2018-10-02T16:27:43.613Z,1.60
2018-10-02T16:30:12.128Z,1.30
2018-10-02T16:32:40.697Z,1.70
2018-10-02T16:35:09.293Z,1.60
2018-10-02T16:37:38.001Z,1.37
2018-10-02T16:40:06.766Z,1.40
2018-10-02T16:42:35.744Z,1.77
2018-10-02T16:45:04.449Z,1.50
2018-10-02T16:47:33.026Z,1.60
2018-10-02T16:50:01.666Z,1.43
2018-10-02T16:52:30.266Z,1.40
2018-10-02T16:54:58.945Z,1.50
2018-10-02T16:57:27.622Z,1.50
2018-10-02T16:59:56.475Z,1.37
2018-10-02T17:02:25.354Z,1.50
2018-10-02T17:04:54.058Z,1.33
2018-10-02T17:07:23.036Z,1.57
2018-10-02T17:09:51.668Z,1.53
2018-10-02T17:12:20.359Z,1.70
2018-10-02T17:14:48.923Z,1.70
2018-10-02T17:17:17.795Z,1.70
2018-10-02T17:19:46.307Z,1.80
2018-10-02T17:22:15.150Z,1.50
2018-10-02T17:24:43.618Z,1.60
2018-10-02T17:27:12.299Z,1.60
2018-10-02T17:29:41.064Z,1.80
2018-10-02T17:32:09.705Z,1.57
2018-10-02T17:34:38.170Z,1.80
2018-10-02T17:37:06.975Z,1.57
2018-10-02T17:39:35.824Z,1.60
2018-10-02T17:42:05.170Z,1.80
2018-10-02T17:44:34.347Z,2.00
2018-10-02T17:47:03.132Z,2.03
2018-10-02T17:49:31.602Z,1.73
2018-10-02T17:52:00.266Z,2.57
2018-10-02T17:54:28.811Z,2.03
2018-10-02T17:56:57.448Z,1.70
2018-10-02T17:59:26.019Z,1.67
2018-10-02T18:01:54.593Z,2.03
2018-10-02T18:04:23.057Z,1.80
2018-10-02T18:06:51.803Z,2.10
2018-10-02T18:09:20.347Z,1.97
2018-10-02T18:11:48.930Z,1.67
2018-10-02T18:14:17.495Z,1.87
2018-10-02T18:16:45.941Z,2.13
2018-10-02T18:19:14.445Z,2.20
2018-10-02T18:21:42.986Z,2.10
2018-10-02T18:24:11.469Z,2.30
2018-10-02T18:26:40.092Z,1.90
2018-10-02T18:29:08.637Z,2.22
2018-10-02T18:31:37.162Z,2.03
2018-10-02T18:34:05.622Z,2.40
2018-10-02T18:36:34.093Z,2.27
2018-10-02T18:39:02.772Z,2.87
2018-10-02T18:41:32.045Z,2.77
2018-10-02T18:44:00.756Z,2.53
2018-10-02T18:46:29.449Z,2.47
2018-10-02T18:48:58.209Z,2.70
2018-10-02T18:51:26.833Z,2.60
2018-10-02T18:53:55.339Z,2.30
2018-10-02T18:56:24.273Z,2.37
2018-10-02T18:58:53.061Z,2.37
2018-10-02T19:01:21.949Z,3.10
2018-10-02T19:03:50.628Z,2.87
2018-10-02T19:06:19.820Z,3.20
2018-10-02T19:08:53.966Z,2.60
2018-10-02T19:11:28.034Z,2.93
2018-10-02T19:13:58.068Z,2.83
2018-10-02T19:16:28.596Z,2.93
2018-10-02T19:18:57.529Z,2.90
2018-10-02T19:21:26.258Z,3.27
2018-10-02T19:23:54.918Z,3.17
2018-10-02T19:26:25.610Z,3.00
2018-10-02T19:28:54.273Z,2.90
2018-10-02T19:31:28.234Z,2.53
2018-10-02T19:33:57.369Z,3.47
2018-10-02T19:36:26.026Z,3.43
2018-10-02T19:39:01.443Z,2.70
2018-10-02T19:41:30.526Z,3.20
2018-10-02T19:43:59.310Z,3.27
2018-10-02T19:46:32.485Z,3.37
2018-10-02T19:49:01.221Z,2.77
2018-10-02T19:51:35.051Z,3.07
2018-10-02T19:54:03.738Z,3.40
2018-10-02T19:56:32.323Z,3.40
2018-10-02T19:59:01.049Z,3.80
2018-10-02T20:01:29.600Z,3.97
2018-10-02T20:03:58.220Z,3.70
2018-10-02T20:06:26.889Z,3.73
2018-10-02T20:08:55.526Z,4.40
2018-10-02T20:11:24.084Z,4.60
2018-10-02T20:13:52.617Z,4.00
2018-10-02T20:16:21.169Z,4.10
2018-10-02T20:18:49.765Z,4.80
2018-10-02T20:21:18.289Z,4.30
2018-10-02T20:23:46.854Z,4.63
2018-10-02T20:26:15.316Z,4.67
2018-10-02T20:28:43.837Z,4.40
2018-10-02T20:31:14.401Z,5.03
2018-10-02T20:33:43.001Z,5.23
2018-10-02T20:36:11.461Z,4.77
2018-10-02T20:38:41.251Z,4.73
2018-10-02T20:41:09.773Z,4.67
2018-10-02T20:43:38.314Z,5.93
2018-10-02T20:46:07.308Z,6.00
2018-10-02T20:48:36.064Z,5.70
2018-10-02T20:51:04.578Z,4.90
2018-10-02T20:53:33.163Z,5.30
2018-10-02T20:56:01.930Z,5.50
2018-10-02T20:58:30.530Z,5.70
2018-10-02T21:00:59.105Z,5.40
2018-10-02T21:03:27.775Z,5.57
2018-10-02T21:05:56.324Z,5.13
2018-10-02T21:08:24.861Z,5.80
2018-10-02T21:10:53.505Z,5.37
2018-10-02T21:13:22.022Z,5.97
2018-10-02T21:15:50.484Z,6.00
2018-10-02T21:18:19.052Z,6.73
2018-10-02T21:20:47.695Z,7.17
2018-10-02T21:23:16.235Z,5.80
2018-10-02T21:25:44.733Z,5.93
2018-10-02T21:28:13.419Z,6.23
2018-10-02T21:30:42.030Z,6.60
2018-10-02T21:33:11.776Z,6.57
2018-10-02T21:35:40.583Z,6.50
2018-10-02T21:38:09.331Z,6.67
2018-10-02T21:40:38.166Z,7.17
2018-10-02T21:43:07.010Z,6.40
2018-10-02T21:45:36.248Z,7.03
2018-10-02T21:48:05.187Z,7.07
2018-10-02T21:50:34.174Z,6.63
2018-10-02T21:53:03.753Z,7.10
2018-10-02T21:55:32.551Z,6.77
2018-10-02T21:58:01.394Z,7.67
2018-10-02T22:00:31.642Z,7.40
2018-10-02T22:03:00.881Z,7.63
2018-10-02T22:05:30.122Z,7.10
2018-10-02T22:07:59.057Z,6.83
2018-10-02T22:10:27.926Z,7.97
2018-10-02T22:12:56.519Z,9.33
2018-10-02T22:15:25.000Z,15.80
2018-10-02T22:17:53.441Z,8.03
2018-10-02T22:20:21.958Z,8.23
2018-10-02T22:22:50.485Z,8.30
2018-10-02T22:25:19.025Z,7.97
2018-10-02T22:27:47.536Z,8.00
2018-10-02T22:30:16.211Z,7.80
2018-10-02T22:32:45.294Z,7.53
2018-10-02T22:35:13.768Z,7.30
2018-10-02T22:37:42.220Z,7.90
2018-10-02T22:40:10.817Z,6.87
2018-10-02T22:42:39.305Z,7.73
2018-10-02T22:45:07.974Z,7.17
2018-10-02T22:47:36.459Z,6.90
2018-10-02T22:50:05.042Z,6.97
2018-10-02T22:52:33.581Z,7.00
2018-10-02T22:55:02.561Z,6.77
2018-10-02T22:57:31.221Z,6.83
2018-10-02T22:59:59.911Z,6.20
2018-10-02T23:02:28.498Z,6.57
2018-10-02T23:04:57.067Z,6.30
2018-10-02T23:07:25.613Z,6.33
2018-10-02T23:09:54.190Z,6.57
2018-10-02T23:12:22.676Z,7.70
2018-10-02T23:14:51.239Z,6.03
2018-10-02T23:17:19.704Z,6.83
2018-10-02T23:19:48.291Z,5.70
2018-10-02T23:22:16.816Z,5.80
2018-10-02T23:24:45.297Z,5.40
2018-10-02T23:27:14.040Z,6.50
2018-10-02T23:29:42.606Z,6.23
2018-10-02T23:32:11.187Z,6.43
2018-10-02T23:34:40.224Z,6.00
2018-10-02T23:37:08.976Z,5.70
2018-10-02T23:39:38.170Z,5.27
2018-10-02T23:42:06.747Z,5.63
2018-10-02T23:44:35.284Z,6.10
2018-10-02T23:47:04.888Z,6.97
2018-10-02T23:49:33.626Z,5.50
2018-10-02T23:52:02.188Z,6.00
2018-10-02T23:54:31.803Z,6.30
2018-10-02T23:57:00.409Z,6.17
2018-10-02T23:59:28.966Z,5.57
